Share

Olive Hill, KY (41164)

Green (KKYOLIVE2) Elev 682 ft | 38.19 °N, 83.08 °W | Change Station

Current weather conditions updated 1 minute ago

Clear
Clear
69.1 °F
Feels Like 69.1 °F
N
4.0
Wind Variable Wind from NNW
Gusts 6.9 mph
Sunrise 6:54 AM
Sunset 8:10 PM
Moon Waning Gibbous

Today is forecast to be Much Warmer than yesterday.

Pressure 30.42 in
Visibility 10.0 miles
Clouds Clear
Dew Point 22 °F
Humidity 17%
Rainfall -999.00 in
Snow Depth Not available.
UV 9 out of 16
Pollen 10.00 out of 12
Air Quality Not available.
Flu Activity Sporadic
METAR KHTS 171551Z VRB04KT 10SM CLR 15/M03 A3042 RMK AO2 SLP301 T01501033

More Conditions Fewer Conditions

Pressure 30.42 in
Visibility 10.0 miles
Clouds Clear
Dew Point 22 °F
Humidity 17%
Rainfall -999.00 in
Snow Depth Not available.
UV 9 out of 16
Pollen 10.00 out of 12
Air Quality Not available.
Flu Activity Sporadic
METAR KHTS 171551Z VRB04KT 10SM CLR 15/M03 A3042 RMK AO2 SLP301 T01501033

More Conditions Fewer Conditions

10-Day Forecast

Almanac

Astronomy

Apr. 17, 2014 Rise Set
Actual Time 6:54 AM EDT 8:10 PM EDT
Civil Twilight 6:26 AM EDT 8:38 PM EDT
Nautical Twilight 5:53 AM EDT 9:11 PM EDT
Astronomical Twilight 5:19 AM EDT 9:45 PM EDT
Moon 10:53 PM EDT 8:26 AM EDT
Length of Visible Light 14h 11m
Length of Day
13h 16m
Tomorrow will be 2m 20s longer.
Waning Gibbous, 93% of the Moon is Illuminated
Today
Waning Gibbous
Apr 22
Last Quarter
Apr 29
New
May 6
First Quarter
May 14
Full

Today's Extremes

State Highs State Lows

Community

  • New Day
    New Day
  • Lake Michigan Sunrise
    Lake Michigan Sunrise
  • sunset from izmir, narlıdere
    sunset from izmir, narlıdere
  • oregon cherry
    oregon cherry
  • Sunset over the Bay
    Sunset over the Bay

WunderPhotos

Upload Photos

1,702,067 photos uploaded!

Nearby

Snow Depth

Station Depth Elevation
No new snow has been reported.

Coastal Water Temperatures

Place Temperature
No Stations Reporting

Earthquake Activity

City Distance Mag. Time & Date
No recent earthquake activity has been reported nearby.
Minimum magnitude displayed is 2.5.

Nearby Weather Stations

Station Location Temp. Dew Point Humidity Wind Precip. Elev Updated Type
Green, Olive Hill, KY 69.1 °F 22 °F 17% NNW  at  4.0 mph 0.00 in / hr 682 ft 12:49 PM EDT Normal
RAWS TRIANGLE MTN KY, Morehead, KY 60 °F 26 °F 27% North  at  0 mph 0.00 in / hr 1359 ft 12:02 PM EDT MADIS

Show More Stations Show Fewer Stations

What do you think?

We're not finished. Please let us know what you like, what you don't like, and what you are still missing.